Flight Track Log - Related Links

Times and Time Zones

All times are in EDT time to prevent confusion due to time zone crossing. See the N329JB flight status page for this flight to view local times or setup timezone preferences in your user account.

Time Position Orientation Groundspeed Altitude Reporting Facility
EDT Latitude Longitude Course Direction KTS MPH feet Rate Location/Type
Sat 06:17:03 AM 38.9000 -77.0667 74° East 149 171 2,300  Level Potomac TRACON
Sat 06:17:57 AM 38.9333 -77.1167 311° West 190 219 4,600 2,526 Climbing Potomac TRACON
Sat 06:18:00 AM 38.9853 -76.6443 67° East  Level FlightAware Approximate
Sat 06:18:57 AM 38.9833 -77.1500 333° Northwest 241 277 7,100  Level Potomac TRACON
Sat 06:19:00 AM 39.0333 -76.5102 62° Northeast  Level FlightAware Approximate
Sat 06:20:00 AM 39.0876 -76.3798 62° Northeast  Level FlightAware Approximate
Sat 06:20:03 AM 39.0333 -77.0500 57° Northeast 335 386 10,100  Level Potomac TRACON
Sat 06:20:51 AM 39.0500 -76.9500 78° East 384 442 10,900 2,000 Climbing Potomac TRACON
Sat 06:21:00 AM 39.1379 -76.2469 63° Northeast  Level FlightAware Approximate
Sat 06:22:00 AM 39.2064 -76.1444 74° East  Level Estimated
Sat 06:22:39 AM 39.0792 -76.6986 81° East 429 494 15,300  Level Washington Center
Sat 06:23:39 AM 39.1347 -76.5575 63° Northeast 429 494 17,800 2,150 Climbing Washington Center
Sat 06:24:39 AM 39.2086 -76.4192 55° Northeast 436 502 19,600 1,700 Climbing Washington Center
Sat 06:25:39 AM 39.2867 -76.2700 56° Northeast 475 547 21,200 1,650 Climbing Washington Center
Sat 06:26:39 AM 39.3728 -76.1178 54° Northeast 503 579 22,900 1,550 Climbing Washington Center
Sat 06:27:39 AM 39.4547 -75.9597 56° Northeast 520 598 24,300 1,650 Climbing Washington Center
Sat 06:28:39 AM 39.5383 -75.7986 56° Northeast 532 612 26,200 1,350 Climbing Washington Center
Sat 06:29:39 AM 39.6239 -75.6347 56° Northeast 532 612 27,000 255 Climbing Washington Center
Sat 06:31:47 AM 39.8061 -75.2836 56° Northeast 534 615 27,000  Level New York Center
Sat 06:32:45 AM 39.8808 -75.1317 57° Northeast 534 615 27,000  Level New York Center
Sat 06:33:45 AM 39.9617 -74.9742 56° Northeast 534 615 27,000  Level New York Center
Sat 06:34:46 AM 40.0633 -74.8067 52° Northeast 533 613 27,000  Level New York Center
Sat 06:35:46 AM 40.1472 -74.6622 53° Northeast 539 620 27,000  Level New York Center
Sat 06:36:47 AM 40.2311 -74.5228 52° Northeast 539 620 27,000  Level New York Center
Sat 06:37:45 AM 40.3322 -74.3514 52° Northeast 544 626 27,000  Level New York Center
Sat 06:38:47 AM 40.4203 -74.1978 53° Northeast 539 620 27,000  Level New York Center
Sat 06:41:12 AM 40.6497 -73.8106 52° Northeast 540 621 27,000 -29 Level Boston Center
Sat 06:42:12 AM 40.7286 -73.6642 55° Northeast 535 616 26,900 -1,150 Descending Boston Center
Sat 06:43:12 AM 40.8156 -73.5097 53° Northeast 535 616 24,700 -1,450 Descending Boston Center
Sat 06:44:12 AM 40.9108 -73.3600 50° Northeast 535 616 24,000 -650 Descending Boston Center
Sat 06:45:12 AM 41.0056 -73.2267 47° Northeast 515 593 23,400 -500 Descending Boston Center
Sat 06:46:12 AM 41.1022 -73.0847 48° Northeast 510 587 23,000 -200 Descending Boston Center
Sat 06:47:12 AM 41.1967 -72.9394 49° Northeast 510 587 23,000  Level Boston Center
Sat 06:48:24 AM 41.2767 -72.7578 60° Northeast 515 593 23,000  Level Boston Center
Sat 06:49:24 AM 41.3417 -72.5783 64° Northeast 505 581 23,000  Level Boston Center
Sat 06:50:24 AM 41.4000 -72.4125 65° Northeast 487 560 23,000 -550 Level Boston Center
Sat 06:51:24 AM 41.4644 -72.2378 64° Northeast 477 549 21,900 -1,400 Descending Boston Center
Sat 06:52:24 AM 41.5225 -72.0742 65° Northeast 471 542 20,200 -1,600 Descending Boston Center
Sat 06:53:24 AM 41.5781 -71.9211 64° Northeast 466 536 18,700 -1,550 Descending Boston Center
Sat 06:54:24 AM 41.6253 -71.7847 65° Northeast 453 521 17,100 -1,350 Descending Boston Center
Sat 06:55:24 AM 41.6786 -71.6342 65° Northeast 445 512 16,000 -1,409 Descending Boston Center
Sat 06:56:36 AM 41.7458 -71.4411 65° Northeast 439 505 14,000 -1,500 Descending Boston Center
Sat 06:57:36 AM 41.7903 -71.3125 65° Northeast 427 491 12,700 -1,400 Descending Boston Center
Sat 06:58:36 AM 41.8431 -71.1583 65° Northeast 416 479 11,200 -895 Descending Boston Center
Sat 06:59:30 AM 41.9000 -71.0333 59° Northeast 419 482 11,000 -105 Descending KA90
Sat 07:00:30 AM 41.9500 -70.9000 63° Northeast 417 480 11,000 -100 Level KA90
Sat 07:01:30 AM 42.0167 -70.7667 56° Northeast 416 479 10,800 -1,200 Descending KA90
Sat 07:02:30 AM 42.0833 -70.6500 52° Northeast 410 472 8,600 -2,000 Descending KA90
Sat 07:03:30 AM 42.1833 -70.6000 20° North 363 418 6,800 -1,636 Descending KA90
Sat 07:04:31 AM 42.2833 -70.5833 North 325 374 5,300 -1,488 Descending KA90
Sat 07:05:31 AM 42.3667 -70.5667 North 310 357 3,800 -1,150 Descending KA90
Sat 07:06:31 AM 42.4167 -70.6000 334° Northwest 237 273 3,000 -432 Descending KA90
Sat 07:07:36 AM 42.4119 -70.6853 266° West 176 203 2,900 -48 Descending Boston Center
Sat 07:08:36 AM 42.4047 -70.7644 263° West 188 216 2,900 -300 Level Boston Center
Sat 07:09:36 AM 42.3892 -70.8350 253° West 188 216 2,300 -730 Descending Boston Center
Sat 07:10:31 AM 42.3833 -70.8833 261° West 161 185 1,500 -730 Descending KA90
Sat 07:11:31 AM 42.3667 -70.9333 246° West 113 130 900 -600 Descending KA90
Sat 07:12:31 AM 42.3667 -70.9667 270° West 113 130 300 -600 Descending KA90
Sat 07:14:00 AM 42.3500 -71.0000 North  Level FlightAware Approximate

Login

Don't have an account? Register now (free) for customized features, flight alerts, and more!